createdAt,value
2022-11-14T00:01:51.321Z,1.28
2022-11-14T00:04:19.429Z,1.35
2022-11-14T00:06:47.743Z,1.33
2022-11-14T00:09:16.126Z,1.34
2022-11-14T00:11:45.790Z,1.35
2022-11-14T00:14:14.249Z,1.31
2022-11-14T00:16:42.345Z,1.35
2022-11-14T00:19:11.167Z,1.27
2022-11-14T00:21:39.360Z,1.32
2022-11-14T00:24:07.912Z,1.19
2022-11-14T00:26:36.285Z,1.21
2022-11-14T00:29:06.102Z,1.18
2022-11-14T00:31:34.973Z,1.10
2022-11-14T00:34:03.280Z,1.14
2022-11-14T00:36:31.467Z,1.10
2022-11-14T00:38:59.889Z,1.09
2022-11-14T00:41:28.224Z,1.12
2022-11-14T00:43:56.714Z,0.98
2022-11-14T00:46:26.432Z,0.93
2022-11-14T00:48:54.587Z,0.94
2022-11-14T00:51:22.792Z,0.95
2022-11-14T00:53:50.948Z,0.94
2022-11-14T00:56:19.327Z,1.03
2022-11-14T00:58:47.633Z,1.05
2022-11-14T01:01:17.161Z,1.03
2022-11-14T01:03:50.109Z,1.00
2022-11-14T01:06:19.434Z,0.99
2022-11-14T01:08:47.761Z,0.92
2022-11-14T01:11:22.420Z,0.91
2022-11-14T01:13:51.012Z,0.94
2022-11-14T01:16:20.136Z,0.88
2022-11-14T01:18:49.990Z,0.88
2022-11-14T01:21:18.351Z,0.89
2022-11-14T01:23:46.612Z,0.88
2022-11-14T01:26:15.671Z,0.85
2022-11-14T01:28:43.863Z,0.87
2022-11-14T01:31:14.362Z,0.98
2022-11-14T01:33:43.106Z,1.05
2022-11-14T01:36:13.162Z,1.03
2022-11-14T01:38:41.712Z,0.90
2022-11-14T01:41:11.335Z,0.98
2022-11-14T01:43:40.880Z,0.97
2022-11-14T01:46:14.167Z,0.97
2022-11-14T01:48:45.362Z,0.94
2022-11-14T01:51:26.197Z,0.93
2022-11-14T01:53:57.026Z,0.93
2022-11-14T01:56:29.463Z,0.91
2022-11-14T01:59:03.209Z,0.87
2022-11-14T02:01:35.649Z,0.83
2022-11-14T02:04:08.842Z,0.76
2022-11-14T02:06:42.333Z,0.79
2022-11-14T02:09:10.868Z,0.76
2022-11-14T02:11:42.167Z,0.45
2022-11-14T02:14:10.909Z,0.20
2022-11-14T02:16:40.647Z,0.19
2022-11-14T02:19:09.263Z,-0.05
2022-11-14T02:21:38.952Z,-0.08
2022-11-14T02:24:11.231Z,-0.15
2022-11-14T02:26:40.208Z,-0.13
2022-11-14T02:29:10.360Z,-0.10
2022-11-14T02:31:38.947Z,-0.12
2022-11-14T02:34:07.540Z,-0.12
2022-11-14T02:36:35.837Z,-0.13
2022-11-14T02:39:05.821Z,-0.17
2022-11-14T02:41:34.254Z,-0.07
2022-11-14T02:44:02.506Z,-0.06
2022-11-14T02:46:31.072Z,-0.13
2022-11-14T02:48:59.481Z,-0.04
2022-11-14T02:51:28.179Z,-0.05
2022-11-14T02:53:56.563Z,-0.07
2022-11-14T02:56:26.452Z,-0.13
2022-11-14T02:58:54.885Z,-0.20
2022-11-14T03:01:23.376Z,-0.12
2022-11-14T03:03:51.737Z,-0.13
2022-11-14T03:06:20.225Z,-0.16
2022-11-14T03:08:50.213Z,-0.20
2022-11-14T03:11:18.493Z,0.06
2022-11-14T03:13:48.535Z,0.03
2022-11-14T03:16:17.427Z,0.01
2022-11-14T03:18:45.892Z,-0.05
2022-11-14T03:21:17.062Z,-0.06
2022-11-14T03:23:45.715Z,-0.07
2022-11-14T03:26:15.600Z,-0.14
2022-11-14T03:28:44.567Z,-0.24
2022-11-14T03:31:16.440Z,-0.27
2022-11-14T03:33:45.017Z,-0.30
2022-11-14T03:36:13.606Z,-0.29
2022-11-14T03:38:42.172Z,-0.25
2022-11-14T03:41:10.553Z,-0.21
2022-11-14T03:43:38.985Z,-0.19
2022-11-14T03:46:07.455Z,-0.17
2022-11-14T03:48:37.169Z,-0.09
2022-11-14T03:51:05.452Z,-0.10
2022-11-14T03:53:33.861Z,-0.07
2022-11-14T03:56:02.322Z,-0.01
2022-11-14T03:58:30.938Z,0.03
2022-11-14T04:00:59.578Z,0.07
2022-11-14T04:03:28.156Z,0.07
2022-11-14T04:05:57.893Z,0.10
2022-11-14T04:08:26.593Z,0.16
2022-11-14T04:10:54.724Z,0.14
2022-11-14T04:13:22.945Z,0.16
2022-11-14T04:15:56.365Z,0.17
2022-11-14T04:18:25.749Z,0.19
2022-11-14T04:20:54.089Z,0.23
2022-11-14T04:23:23.864Z,0.23
2022-11-14T04:25:52.436Z,0.36
2022-11-14T04:28:20.658Z,0.37
2022-11-14T04:30:48.880Z,0.50
2022-11-14T04:33:17.312Z,0.41
2022-11-14T04:35:46.486Z,0.33
2022-11-14T04:38:14.980Z,0.37
2022-11-14T04:40:50.533Z,0.34
2022-11-14T04:43:19.430Z,0.29
2022-11-14T04:45:47.994Z,0.28
2022-11-14T04:48:16.895Z,0.31
2022-11-14T04:50:46.770Z,0.27
2022-11-14T04:53:15.395Z,0.43
2022-11-14T04:55:45.581Z,0.39
2022-11-14T04:58:14.211Z,0.31
2022-11-14T05:00:42.670Z,0.31
2022-11-14T05:03:10.968Z,0.27
2022-11-14T05:05:41.937Z,0.22
2022-11-14T05:08:10.901Z,0.21
2022-11-14T05:10:38.987Z,0.21
2022-11-14T05:13:08.681Z,0.31
2022-11-14T05:15:37.074Z,0.30
2022-11-14T05:18:05.759Z,0.29
2022-11-14T05:20:34.218Z,0.18
2022-11-14T05:23:02.673Z,0.19
2022-11-14T05:25:30.885Z,0.16
2022-11-14T05:27:59.518Z,0.14
2022-11-14T05:30:29.548Z,0.21
2022-11-14T05:32:57.862Z,0.23
2022-11-14T05:35:26.306Z,0.21
2022-11-14T05:37:58.998Z,0.21
2022-11-14T05:40:28.658Z,0.19
2022-11-14T05:42:57.008Z,0.26
2022-11-14T05:45:25.495Z,0.23
2022-11-14T05:47:55.376Z,0.24
2022-11-14T05:50:23.886Z,0.27
2022-11-14T05:52:53.214Z,0.29
2022-11-14T05:55:24.850Z,0.32
2022-11-14T05:57:54.056Z,0.38
2022-11-14T06:00:22.795Z,0.38
2022-11-14T06:02:55.630Z,0.36
2022-11-14T06:05:24.938Z,0.37
2022-11-14T06:07:57.808Z,0.37
2022-11-14T06:10:26.643Z,0.32
2022-11-14T06:12:55.092Z,0.29
2022-11-14T06:15:23.464Z,0.30
2022-11-14T06:17:56.257Z,0.29
2022-11-14T06:20:24.545Z,0.24
2022-11-14T06:22:55.589Z,0.31
2022-11-14T06:25:23.993Z,0.36
2022-11-14T06:27:52.384Z,0.44
2022-11-14T06:30:21.071Z,0.43
2022-11-14T06:32:49.762Z,0.39
2022-11-14T06:35:20.321Z,0.39
2022-11-14T06:37:48.907Z,0.36
2022-11-14T06:40:18.226Z,0.35
2022-11-14T06:42:46.664Z,0.35
2022-11-14T06:45:15.661Z,0.40
2022-11-14T06:47:44.227Z,0.41
2022-11-14T06:50:12.579Z,0.47
2022-11-14T06:52:42.521Z,0.49
2022-11-14T06:55:11.536Z,0.59
2022-11-14T06:57:41.034Z,0.59
2022-11-14T07:00:11.291Z,0.58
2022-11-14T07:02:40.008Z,0.58
2022-11-14T07:05:08.847Z,0.61
2022-11-14T07:07:37.684Z,0.67
2022-11-14T07:10:08.605Z,0.68
2022-11-14T07:12:37.273Z,0.80
2022-11-14T07:15:06.989Z,0.84
2022-11-14T07:17:36.479Z,0.89
2022-11-14T07:20:05.526Z,0.97
2022-11-14T07:22:33.981Z,0.98
2022-11-14T07:25:03.876Z,1.01
2022-11-14T07:27:33.683Z,1.04
2022-11-14T07:30:01.872Z,0.97
2022-11-14T07:32:30.383Z,1.11
2022-11-14T07:35:02.150Z,1.16
2022-11-14T07:37:31.382Z,1.28
2022-11-14T07:39:59.807Z,1.23
2022-11-14T07:42:31.245Z,1.41
2022-11-14T07:45:02.734Z,1.48
2022-11-14T07:47:32.336Z,1.54
2022-11-14T07:50:00.929Z,1.65
2022-11-14T07:52:31.664Z,1.71
2022-11-14T07:55:00.386Z,1.79
2022-11-14T07:57:28.743Z,1.86
2022-11-14T07:59:57.045Z,1.96
2022-11-14T08:02:26.757Z,2.02
2022-11-14T08:04:55.648Z,2.05
2022-11-14T08:07:24.477Z,2.17
2022-11-14T08:09:52.952Z,2.27
2022-11-14T08:12:22.044Z,2.34
2022-11-14T08:14:50.619Z,2.38
2022-11-14T08:17:19.222Z,2.44
2022-11-14T08:19:49.017Z,2.49
2022-11-14T08:22:17.952Z,2.56
2022-11-14T08:24:46.434Z,2.65
2022-11-14T08:27:15.123Z,2.74
2022-11-14T08:29:43.588Z,2.82
2022-11-14T08:32:12.731Z,2.82
2022-11-14T08:34:41.871Z,2.98
2022-11-14T08:37:11.876Z,3.06
2022-11-14T08:39:40.624Z,3.11
2022-11-14T08:42:09.269Z,3.22
2022-11-14T08:44:38.390Z,3.34
2022-11-14T08:47:07.068Z,3.38
2022-11-14T08:49:35.573Z,3.50
2022-11-14T08:52:04.660Z,3.59
2022-11-14T08:54:34.629Z,3.67
2022-11-14T08:57:03.379Z,3.72
2022-11-14T08:59:32.144Z,3.85
2022-11-14T09:02:00.574Z,3.92
2022-11-14T09:04:29.294Z,4.05
2022-11-14T09:06:58.924Z,4.16
2022-11-14T09:09:28.187Z,4.26
2022-11-14T09:11:58.738Z,4.40
2022-11-14T09:14:27.393Z,4.49
2022-11-14T09:16:55.957Z,4.62
2022-11-14T09:19:24.741Z,4.68
2022-11-14T09:21:53.543Z,4.77
2022-11-14T09:24:28.333Z,4.87
2022-11-14T09:26:59.547Z,5.01
2022-11-14T09:29:28.732Z,5.12
2022-11-14T09:31:57.539Z,5.22
2022-11-14T09:34:26.107Z,5.32
2022-11-14T09:36:54.895Z,5.48
2022-11-14T09:39:23.282Z,5.56
2022-11-14T09:42:15.792Z,5.65
2022-11-14T09:44:56.584Z,5.69
2022-11-14T09:47:30.983Z,5.81
2022-11-14T09:50:04.720Z,5.85
2022-11-14T09:52:38.617Z,5.96
2022-11-14T09:55:14.589Z,5.98
2022-11-14T09:57:46.039Z,6.28
2022-11-14T10:00:16.960Z,6.30
2022-11-14T10:02:59.381Z,6.50
2022-11-14T10:05:49.555Z,6.63
2022-11-14T10:08:39.948Z,6.67
2022-11-14T10:11:12.199Z,6.79
2022-11-14T10:13:54.934Z,6.80
2022-11-14T10:16:33.728Z,7.00
2022-11-14T10:19:15.758Z,7.09
2022-11-14T10:22:13.794Z,7.16
2022-11-14T10:24:57.955Z,7.28
2022-11-14T10:27:32.581Z,7.36
2022-11-14T10:30:12.441Z,7.48
2022-11-14T10:33:05.376Z,7.51
2022-11-14T10:35:42.134Z,7.71
2022-11-14T10:38:19.009Z,8.12
2022-11-14T10:40:49.839Z,8.43
2022-11-14T10:43:27.745Z,8.46
2022-11-14T10:46:03.691Z,8.77
2022-11-14T10:48:35.066Z,8.63
2022-11-14T10:51:10.486Z,8.95
2022-11-14T10:53:48.529Z,9.11
2022-11-14T10:56:17.085Z,9.04
2022-11-14T10:58:49.526Z,9.24
2022-11-14T11:01:43.344Z,9.10
2022-11-14T11:04:27.362Z,9.17
2022-11-14T11:06:58.449Z,9.09
2022-11-14T11:09:46.597Z,9.08
2022-11-14T11:12:19.514Z,9.02
2022-11-14T11:14:49.567Z,9.00
2022-11-14T11:17:31.381Z,8.90
2022-11-14T11:20:27.090Z,8.92
2022-11-14T11:23:05.268Z,9.11
2022-11-14T11:25:37.437Z,9.06
2022-11-14T11:28:09.388Z,9.14
2022-11-14T11:30:38.613Z,9.13
2022-11-14T11:33:24.526Z,9.15
2022-11-14T11:35:57.758Z,9.28
2022-11-14T11:38:30.109Z,9.34
2022-11-14T11:41:11.662Z,9.39
2022-11-14T11:43:57.221Z,9.38
2022-11-14T11:46:33.793Z,9.38
2022-11-14T11:49:12.708Z,9.39
2022-11-14T11:51:46.933Z,9.48
2022-11-14T11:54:17.275Z,9.66
2022-11-14T11:56:49.546Z,9.70
2022-11-14T11:59:35.209Z,9.83
2022-11-14T12:02:13.161Z,9.70
2022-11-14T12:04:43.621Z,9.61
2022-11-14T12:07:18.001Z,9.74
2022-11-14T12:10:09.737Z,9.64
2022-11-14T12:13:08.364Z,9.63
2022-11-14T12:15:53.000Z,9.73
2022-11-14T12:18:40.097Z,9.86
2022-11-14T12:21:28.344Z,9.75
2022-11-14T12:24:25.982Z,9.79
2022-11-14T12:27:08.483Z,9.83
2022-11-14T12:29:52.247Z,9.85
2022-11-14T12:32:32.793Z,9.96
2022-11-14T12:35:06.656Z,9.86
2022-11-14T12:37:39.972Z,9.84
2022-11-14T12:40:20.149Z,9.89
2022-11-14T12:42:50.403Z,9.97
2022-11-14T12:45:56.102Z,9.87
2022-11-14T12:48:35.581Z,9.88
2022-11-14T12:51:07.152Z,10.08
2022-11-14T12:53:43.164Z,10.02
2022-11-14T12:56:41.011Z,10.14
2022-11-14T12:59:26.894Z,10.06
2022-11-14T13:02:27.279Z,10.12
2022-11-14T13:05:16.503Z,10.00
2022-11-14T13:07:52.972Z,10.20
2022-11-14T13:10:29.325Z,10.11
2022-11-14T13:13:25.150Z,10.13
2022-11-14T13:16:13.235Z,10.14
2022-11-14T13:19:14.695Z,10.23
2022-11-14T13:22:18.692Z,10.18
2022-11-14T13:25:20.667Z,10.15
2022-11-14T13:28:09.977Z,10.14
2022-11-14T13:31:07.667Z,10.14
2022-11-14T13:33:42.949Z,10.17
2022-11-14T13:36:16.962Z,10.15
2022-11-14T13:38:59.947Z,10.07
2022-11-14T13:42:13.114Z,10.15
2022-11-14T13:45:29.055Z,10.07
2022-11-14T13:48:36.405Z,10.21
2022-11-14T13:51:41.254Z,10.08
2022-11-14T13:54:01.388Z,10.10
2022-11-14T13:56:41.910Z,9.95
2022-11-14T13:59:46.519Z,10.50
2022-11-14T14:02:41.757Z,10.33
2022-11-14T14:05:22.467Z,10.34
2022-11-14T14:08:11.664Z,10.18
2022-11-14T14:10:44.116Z,10.14
2022-11-14T14:13:27.429Z,10.22
2022-11-14T14:16:05.940Z,10.17
2022-11-14T14:19:01.326Z,10.10
2022-11-14T14:21:41.371Z,9.89
2022-11-14T14:24:27.018Z,9.81
2022-11-14T14:27:06.515Z,10.02
2022-11-14T14:29:47.808Z,9.90
2022-11-14T14:32:20.167Z,9.84
2022-11-14T14:34:48.899Z,9.93
2022-11-14T14:37:20.932Z,9.68
2022-11-14T14:40:05.394Z,9.68
2022-11-14T14:42:42.711Z,9.54
2022-11-14T14:45:17.907Z,9.55
2022-11-14T14:47:50.187Z,9.29
2022-11-14T14:50:22.965Z,9.57
2022-11-14T14:52:58.623Z,9.85
2022-11-14T14:55:31.187Z,9.78
2022-11-14T14:58:19.660Z,9.47
2022-11-14T15:00:56.297Z,9.50
2022-11-14T15:03:25.166Z,9.53
2022-11-14T15:06:00.847Z,9.52
2022-11-14T15:08:31.582Z,9.78
2022-11-14T15:11:04.104Z,9.84
2022-11-14T15:13:33.971Z,9.75
2022-11-14T15:16:03.601Z,9.58
2022-11-14T15:18:35.007Z,9.62
2022-11-14T15:21:12.086Z,9.66
2022-11-14T15:23:42.106Z,9.70
2022-11-14T15:26:19.200Z,9.64
2022-11-14T15:28:48.921Z,9.56
2022-11-14T15:31:21.276Z,9.45
2022-11-14T15:34:03.934Z,9.34
2022-11-14T15:36:33.043Z,9.29
2022-11-14T15:39:04.221Z,9.24
2022-11-14T15:41:35.432Z,9.09
2022-11-14T15:44:05.424Z,8.88
2022-11-14T15:46:43.407Z,8.83
2022-11-14T15:49:23.147Z,8.68
2022-11-14T15:51:56.525Z,8.55
2022-11-14T15:54:28.965Z,8.42
2022-11-14T15:57:03.338Z,8.39
2022-11-14T15:59:33.154Z,8.30
2022-11-14T16:02:06.260Z,8.19
2022-11-14T16:04:39.756Z,8.21
2022-11-14T16:07:14.593Z,8.11
2022-11-14T16:09:54.396Z,8.01
2022-11-14T16:12:25.887Z,7.93
2022-11-14T16:14:54.770Z,7.85
2022-11-14T16:17:25.958Z,7.76
2022-11-14T16:19:56.382Z,7.66
2022-11-14T16:22:26.306Z,7.61
2022-11-14T16:24:58.208Z,7.52
2022-11-14T16:27:29.109Z,7.51
2022-11-14T16:29:58.821Z,7.40
2022-11-14T16:32:28.943Z,7.34
2022-11-14T16:34:58.942Z,7.29
2022-11-14T16:37:28.436Z,7.22
2022-11-14T16:39:57.353Z,7.22
2022-11-14T16:42:26.554Z,7.17
2022-11-14T16:45:02.683Z,7.10
2022-11-14T16:47:32.649Z,7.05
2022-11-14T16:50:02.171Z,6.99
2022-11-14T16:52:31.383Z,7.01
2022-11-14T16:55:00.045Z,6.99
2022-11-14T16:57:29.185Z,6.90
2022-11-14T17:00:00.670Z,6.78
2022-11-14T17:02:30.405Z,6.77
2022-11-14T17:04:59.283Z,6.69
2022-11-14T17:07:30.908Z,6.64
2022-11-14T17:09:59.683Z,6.59
2022-11-14T17:12:30.757Z,6.62
2022-11-14T17:15:01.321Z,6.60
2022-11-14T17:17:30.783Z,6.60
2022-11-14T17:20:02.792Z,6.69
2022-11-14T17:22:31.369Z,6.70
2022-11-14T17:25:00.142Z,6.64
2022-11-14T17:27:30.326Z,6.60
2022-11-14T17:30:00.701Z,6.53
2022-11-14T17:32:31.563Z,6.54
2022-11-14T17:35:00.317Z,6.49
2022-11-14T17:37:29.158Z,6.46
2022-11-14T17:39:58.721Z,6.42
2022-11-14T17:42:27.547Z,6.46
2022-11-14T17:44:56.185Z,6.39
2022-11-14T17:47:26.557Z,6.33
2022-11-14T17:49:56.932Z,6.38
2022-11-14T17:52:25.586Z,6.32
2022-11-14T17:54:54.087Z,6.41
2022-11-14T17:57:22.778Z,6.35
2022-11-14T17:59:51.205Z,6.30
2022-11-14T18:02:20.241Z,6.29
2022-11-14T18:04:50.821Z,6.26
2022-11-14T18:07:21.101Z,6.23
2022-11-14T18:09:50.402Z,6.22
2022-11-14T18:12:18.803Z,6.20
2022-11-14T18:14:47.898Z,6.14
2022-11-14T18:17:16.598Z,6.12
2022-11-14T18:19:45.437Z,6.06
2022-11-14T18:22:16.426Z,6.06
2022-11-14T18:24:47.533Z,6.03
2022-11-14T18:27:17.262Z,5.92
2022-11-14T18:29:46.481Z,5.98
2022-11-14T18:32:15.953Z,5.90
2022-11-14T18:34:44.991Z,5.95
2022-11-14T18:37:15.563Z,6.04
2022-11-14T18:39:44.517Z,5.96
2022-11-14T18:42:12.808Z,5.97
2022-11-14T18:44:42.947Z,5.94
2022-11-14T18:47:11.617Z,5.90
2022-11-14T18:49:40.093Z,5.82
2022-11-14T18:52:14.238Z,5.81
2022-11-14T18:54:47.006Z,5.85
2022-11-14T18:57:16.501Z,5.83
2022-11-14T18:59:44.980Z,5.82
2022-11-14T19:02:13.797Z,5.83
2022-11-14T19:04:43.085Z,5.83
2022-11-14T19:07:12.534Z,5.77
2022-11-14T19:09:41.100Z,5.76
2022-11-14T19:12:22.173Z,5.78
2022-11-14T19:14:54.393Z,5.76
2022-11-14T19:17:22.839Z,5.79
2022-11-14T19:19:53.567Z,5.85
2022-11-14T19:22:22.451Z,5.86
2022-11-14T19:24:50.634Z,5.95
2022-11-14T19:27:22.207Z,5.89
2022-11-14T19:29:50.979Z,5.93
2022-11-14T19:32:20.044Z,5.92
2022-11-14T19:34:48.427Z,6.02
2022-11-14T19:37:17.051Z,6.11
2022-11-14T19:39:45.698Z,6.01
2022-11-14T19:42:15.347Z,6.02
2022-11-14T19:44:45.487Z,5.98
2022-11-14T19:47:13.770Z,5.84
2022-11-14T19:49:42.886Z,5.72
2022-11-14T19:52:11.748Z,5.70
2022-11-14T19:54:40.674Z,5.63
2022-11-14T19:57:08.825Z,5.66
2022-11-14T19:59:37.310Z,5.59
2022-11-14T20:02:07.437Z,5.67
2022-11-14T20:04:37.985Z,5.60
2022-11-14T20:07:06.898Z,5.47
2022-11-14T20:09:35.466Z,5.44
2022-11-14T20:12:04.310Z,5.35
2022-11-14T20:14:33.846Z,5.33
2022-11-14T20:17:02.757Z,5.23
2022-11-14T20:19:32.573Z,5.23
2022-11-14T20:22:00.934Z,5.15
2022-11-14T20:24:30.074Z,5.06
2022-11-14T20:26:58.656Z,5.13
2022-11-14T20:29:27.170Z,5.07
2022-11-14T20:31:55.568Z,5.08
2022-11-14T20:34:24.310Z,5.06
2022-11-14T20:37:10.438Z,5.07
2022-11-14T20:39:39.960Z,5.10
2022-11-14T20:42:08.343Z,5.05
2022-11-14T20:44:36.861Z,5.14
2022-11-14T20:47:09.859Z,5.13
2022-11-14T20:49:39.355Z,5.14
2022-11-14T20:52:09.124Z,5.11
2022-11-14T20:54:37.462Z,5.09
2022-11-14T20:57:06.118Z,5.12
2022-11-14T20:59:34.596Z,5.05
2022-11-14T21:02:02.953Z,5.04
2022-11-14T21:04:31.772Z,5.03
2022-11-14T21:07:00.146Z,5.02
2022-11-14T21:09:30.088Z,5.01
2022-11-14T21:11:58.308Z,5.02
2022-11-14T21:14:27.278Z,4.95
2022-11-14T21:16:55.578Z,5.19
2022-11-14T21:19:24.528Z,5.23
2022-11-14T21:21:53.673Z,5.31
2022-11-14T21:24:25.087Z,5.33
2022-11-14T21:26:55.155Z,5.48
2022-11-14T21:29:24.463Z,5.40
2022-11-14T21:31:55.894Z,5.34
2022-11-14T21:34:24.351Z,5.26
2022-11-14T21:36:52.682Z,5.20
2022-11-14T21:39:21.156Z,5.18
2022-11-14T21:41:49.616Z,5.14
2022-11-14T21:44:19.547Z,5.13
2022-11-14T21:46:50.148Z,5.05
2022-11-14T21:49:18.958Z,5.06
2022-11-14T21:51:48.563Z,4.95
2022-11-14T21:54:17.154Z,4.94
2022-11-14T21:56:46.042Z,5.00
2022-11-14T21:59:18.938Z,4.98
2022-11-14T22:02:07.892Z,4.91
2022-11-14T22:04:36.822Z,5.12
2022-11-14T22:07:06.561Z,5.12
2022-11-14T22:09:35.295Z,5.06
2022-11-14T22:12:03.657Z,5.08
2022-11-14T22:14:32.123Z,5.10
2022-11-14T22:17:01.808Z,5.19
2022-11-14T22:19:30.365Z,5.26
2022-11-14T22:22:07.438Z,5.26
2022-11-14T22:24:35.628Z,5.34
2022-11-14T22:27:04.034Z,5.22
2022-11-14T22:29:32.383Z,5.23
2022-11-14T22:32:03.469Z,5.15
2022-11-14T22:34:32.175Z,5.11
2022-11-14T22:37:00.836Z,5.01
2022-11-14T22:39:29.597Z,5.01
2022-11-14T22:41:57.902Z,4.99
2022-11-14T22:44:26.504Z,4.95
2022-11-14T22:46:55.287Z,4.94
2022-11-14T22:49:25.700Z,4.85
2022-11-14T22:51:54.013Z,4.86
2022-11-14T22:54:22.259Z,4.80
2022-11-14T22:56:50.531Z,4.81
2022-11-14T22:59:18.946Z,4.81
2022-11-14T23:01:47.356Z,4.75
2022-11-14T23:04:16.122Z,4.75
2022-11-14T23:06:46.211Z,4.64
2022-11-14T23:09:14.653Z,4.67
2022-11-14T23:11:45.088Z,4.67
2022-11-14T23:14:14.748Z,4.67
2022-11-14T23:16:43.432Z,4.67
2022-11-14T23:19:11.852Z,4.63
2022-11-14T23:21:40.153Z,4.63
2022-11-14T23:24:15.615Z,4.64
2022-11-14T23:26:44.042Z,4.60
2022-11-14T23:29:15.316Z,4.55
2022-11-14T23:31:43.792Z,4.65
2022-11-14T23:34:12.109Z,4.71
2022-11-14T23:36:40.581Z,4.78
2022-11-14T23:39:10.706Z,4.89
2022-11-14T23:41:39.499Z,4.87
2022-11-14T23:44:08.103Z,4.85
2022-11-14T23:46:36.913Z,4.78
2022-11-14T23:49:05.286Z,4.76
2022-11-14T23:51:34.017Z,4.83
2022-11-14T23:54:02.755Z,4.81
2022-11-14T23:56:32.547Z,4.81
2022-11-14T23:59:01.006Z,4.79
